Hellas Glory — 9HWN9 — position and weather

sailwx.info

Track history (hours):
 
Tides and Currents Weather Stations Pressure Air Temp Water Temp Dewpoint Dewpoint Depression Visibility Wind Speed Wind Dir Waves Ship Positions

Hellas Glory

Last reported at 2016-Nov-20 17:22 UTC. Time now 2016-Dec-03 15:43 UTC.
Position S 19°28' E 116°52'.
Warning: this ship's position is 12 days out of date.

Length 225 m; draft 11.1 m.

Type: Tanker. MMSI: 249636000.

Date/timePositionNaut miles runAvg speedWind from/ knotsBaromVisibWave heightAir tempDewpointWater temp
2016-Nov-20 17:22S 19°28' E 116°52'1214.9
2016-Nov-20 16:34S 19°40' E 116°52'3014.6
2016-Nov-20 14:31S 20°10' E 116°48'1514.6
2016-Nov-20 13:31S 20°24' E 116°44'  
2016-Nov-18 01:34S 20°35' E 116°46'6 5.5
2016-Nov-18 00:32S 20°30' E 116°44'1110.8
2016-Nov-17 23:33S 20°19' E 116°44'1413.5
2016-Nov-17 22:33S 20°06' E 116°48'1515.3
2016-Nov-17 21:33S 19°51' E 116°52'2914.5
2016-Nov-17 19:33S 19°22' E 116°52'  
Track history (hours):
 
Tides and Currents Weather Stations Pressure Air Temp Water Temp Dewpoint Dewpoint Depression Visibility Wind Speed Wind Dir Waves Ship Positions

Hellas Glory

Last reported at 2016-Nov-20 17:22 UTC. Time now 2016-Dec-03 15:43 UTC.
Position S 19°28' E 116°52'.
Warning: this ship's position is 12 days out of date.

Length 225 m; draft 11.1 m.

Type: Tanker. MMSI: 249636000.

Date/timePositionNaut miles runAvg speedWind from/ knotsBaromVisibWave heightAir tempDewpointWater temp
2016-Nov-20 17:22S 19°28' E 116°52'1214.9
2016-Nov-20 16:34S 19°40' E 116°52'3014.6
2016-Nov-20 14:31S 20°10' E 116°48'1514.6
2016-Nov-20 13:31S 20°24' E 116°44'  
2016-Nov-18 01:34S 20°35' E 116°46'6 5.5
2016-Nov-18 00:32S 20°30' E 116°44'1110.8
2016-Nov-17 23:33S 20°19' E 116°44'1413.5
2016-Nov-17 22:33S 20°06' E 116°48'1515.3
2016-Nov-17 21:33S 19°51' E 116°52'2914.5
2016-Nov-17 19:33S 19°22' E 116°52'  

Dump ship's entire track history